Погода Смоличина 2 недели

Минская область, Белоруссия

24 мая-06 июня
  • 24мая
    Сегодня
    +13°
    +25°
    Небольшая облачность
    ВремяПогодаТемператураВлажностьДавлениеВетер, м/сВероятность осадков
    00:00Ясно и безоблачно+17°C77 %750 мм4.5 м/с2 %
    03:00Практически безоблачно+15°C82 %751 мм4.4 м/с2 %
    06:00Практически безоблачно+14°C70 %751 мм4.9 м/с2 %
    09:00Небольшая облачность+18°C59 %752 мм5.3 м/с2 %
    12:00Облачно с прояснениями+22°C52 %753 мм5.3 м/с2 %
    15:00Небольшая облачность+24°C48 %752 мм6.4 м/с2 %
    18:00Практически безоблачно+24°C47 %752 мм5.9 м/с10 %
    21:00Небольшая облачность+21°C58 %752 мм4.4 м/с2 %
  • 25мая
    Суббота
    +11°
    +26°
    Облачно с прояснениями
    ВремяПогодаТемператураВлажностьДавлениеВетер, м/сВероятность осадков
    00:00Облачно с прояснениями+17°C62 %752 мм4.8 м/с2 %
    03:00Практически безоблачно+15°C67 %752 мм4.2 м/с2 %
    06:00Облачно с прояснениями+13°C68 %752 мм4.0 м/с2 %
    09:00Облачно с прояснениями+19°C61 %752 мм4.0 м/с3 %
    12:00Облачно с прояснениями+23°C50 %752 мм4.2 м/с9 %
    15:00Облачно с прояснениями+24°C52 %752 мм4.1 м/с43 %
    18:00Облачно с прояснениями+24°C53 %751 мм3.2 м/с36 %
    21:00Облачно с прояснениями+20°C71 %751 мм1.8 м/с12 %
  • 26мая
    Воскресенье
    +10°
    +25°
    Практически безоблачно
    ВремяПогодаТемператураВлажностьДавлениеВетер, м/сВероятность осадков
    00:00Облачно с прояснениями+17°C48 %751 мм4.1 м/с5 %
    03:00Облачно с прояснениями+14°C52 %751 мм3.4 м/с4 %
    06:00Облачно с прояснениями+12°C64 %751 мм3.0 м/с6 %
    09:00Практически безоблачно+18°C58 %752 мм2.6 м/с3 %
    12:00Ясно и безоблачно+23°C32 %752 мм3.2 м/с3 %
    15:00Практически безоблачно+24°C33 %752 мм3.1 м/с3 %
    18:00Ясно и безоблачно+25°C35 %751 мм3.2 м/с2 %
    21:00Ясно и безоблачно+19°C54 %751 мм2.3 м/с2 %
  • 27мая
    Понедельник
    +12°
    +26°
    Ясно и безоблачно
    ВремяПогодаТемператураВлажностьДавлениеВетер, м/сВероятность осадков
    00:00Ясно и безоблачно+14°C64 %752 мм2.1 м/с2 %
    03:00Ясно и безоблачно+12°C73 %752 мм1.9 м/с2 %
    06:00Практически безоблачно+12°C76 %752 мм2.0 м/с2 %
    09:00Ясно и безоблачно+20°C60 %752 мм2.0 м/с2 %
    12:00Практически безоблачно+24°C36 %753 мм3.6 м/с2 %
    15:00Ясно и безоблачно+25°C35 %752 мм3.5 м/с12 %
    18:00Ясно и безоблачно+25°C37 %751 мм3.7 м/с19 %
    21:00Ясно и безоблачно+21°C56 %751 мм2.2 м/с7 %
  • 28мая
    Вторник
    +13°
    +26°
    Практически безоблачно
    ВремяПогодаТемператураВлажностьДавлениеВетер, м/сВероятность осадков
    00:00Ясно и безоблачно+16°C67 %751 мм2.3 м/с2 %
    03:00Ясно и безоблачно+13°C82 %751 мм2.1 м/с2 %
    06:00Ясно и безоблачно+14°C82 %751 мм2.6 м/с2 %
    09:00Ясно и безоблачно+20°C65 %751 мм2.5 м/с2 %
    12:00Ясно и безоблачно+25°C51 %751 мм4.1 м/с5 %
    15:00Практически безоблачно+25°C49 %750 мм4.2 м/с17 %
    18:00Небольшая облачность+25°C50 %749 мм4.4 м/с16 %
    21:00Ясно и безоблачно+21°C71 %749 мм1.8 м/с8 %
Мы используем cookies
Соглашаюсь